Portada
METAR-TAF:

METAR-TAF

Aeroports :

Elat, Israel

latitud: 29-43-25N, longitud: 35-00-41E, altitud: 88 m

Observació

L'informe es va fer fa 50 minuts, a les 16:50 UTC
Vent 10 kt del Nord-Oest
Temperatura 30°C
Humitat 15%
Pressió 1009 hPa
Visibilitat 10 km o més
sense núvols per sota de 1500 mi sense presència de cumulonimbus.

METAR: LLER 221650Z 32010KT CAVOK 30/01 Q1009

Hora: 20:40 (17:40 UTC)

Pronòstic

L'informe es va fer fa 37 minuts, a les 17:03 UTC
Pronòstic vàlid del 22 a les 18 UTC al 23 a les 18 UTC
Vent 12 kt del Nord
Visibilitat 10 km o més
sense núvols per sota de 1500 mi sense presència de cumulonimbus.

TAF: LLER 221703Z 2218/2318 36012KT CAVOK TX33/2311Z TN21/2303Z

Observacions i pronòstics meteorològics de més de 4000 aeroports (METAR i TAF).

Les estacions disponibles són els punts grocs i vermells al mapa.

Posi el ratolí al punt desitjat per veure el nom de l'estació.

Feu clic per veure les observacions i els pronòstics meteorològics.

Per canviar el mapa: feu clic els botons verds amb una creu de color negre per apropar; al botó verd amb un guió per allunyar la imatge; o en les fletxes verdes per a mapes adjacents.


METAR-TAF: